sensor_id;sensor_type;location;lat;lon;timestamp;temperature;humidity
17587;DHT22;8912;52.336;17.172;2022-08-01T00:01:33;15.00;99.90
17587;DHT22;8912;52.336;17.172;2022-08-01T00:04:02;14.90;99.90
17587;DHT22;8912;52.336;17.172;2022-08-01T00:06:31;14.90;99.90
17587;DHT22;8912;52.336;17.172;2022-08-01T00:09:02;14.80;99.90
17587;DHT22;8912;52.336;17.172;2022-08-01T00:11:31;14.80;99.90
17587;DHT22;8912;52.336;17.172;2022-08-01T00:14:00;14.80;99.90
17587;DHT22;8912;52.336;17.172;2022-08-01T00:16:28;14.70;99.90
17587;DHT22;8912;52.336;17.172;2022-08-01T00:18:57;14.70;99.90
17587;DHT22;8912;52.336;17.172;2022-08-01T00:21:26;14.70;99.90
17587;DHT22;8912;52.336;17.172;2022-08-01T00:23:55;14.70;99.90
17587;DHT22;8912;52.336;17.172;2022-08-01T00:26:25;14.60;99.90
17587;DHT22;8912;52.336;17.172;2022-08-01T00:28:54;14.60;99.90
17587;DHT22;8912;52.336;17.172;2022-08-01T00:31:23;14.50;99.90
17587;DHT22;8912;52.336;17.172;2022-08-01T00:33:52;14.40;99.90
17587;DHT22;8912;52.336;17.172;2022-08-01T00:36:20;14.50;99.90
17587;DHT22;8912;52.336;17.172;2022-08-01T00:38:49;14.30;99.90
17587;DHT22;8912;52.336;17.172;2022-08-01T00:41:18;14.40;99.90
17587;DHT22;8912;52.336;17.172;2022-08-01T00:43:48;14.40;99.90
17587;DHT22;8912;52.336;17.172;2022-08-01T00:46:17;14.30;99.90
17587;DHT22;8912;52.336;17.172;2022-08-01T00:48:46;14.30;99.90
17587;DHT22;8912;52.336;17.172;2022-08-01T00:51:15;14.30;99.90
17587;DHT22;8912;52.336;17.172;2022-08-01T00:53:45;14.30;99.90
17587;DHT22;8912;52.336;17.172;2022-08-01T00:56:23;14.30;99.90
17587;DHT22;8912;52.336;17.172;2022-08-01T00:58:55;14.40;99.90
17587;DHT22;8912;52.336;17.172;2022-08-01T01:01:25;14.40;99.90
17587;DHT22;8912;52.336;17.172;2022-08-01T01:04:06;14.40;99.90
17587;DHT22;8912;52.336;17.172;2022-08-01T01:06:43;14.40;99.90
17587;DHT22;8912;52.336;17.172;2022-08-01T01:09:30;14.40;99.90
17587;DHT22;8912;52.336;17.172;2022-08-01T01:12:06;14.40;99.90
17587;DHT22;8912;52.336;17.172;2022-08-01T01:14:49;14.40;99.90
17587;DHT22;8912;52.336;17.172;2022-08-01T01:17:26;14.40;99.90
17587;DHT22;8912;52.336;17.172;2022-08-01T01:20:16;14.40;99.90
17587;DHT22;8912;52.336;17.172;2022-08-01T01:23:02;14.30;99.90
17587;DHT22;8912;52.336;17.172;2022-08-01T01:25:46;14.30;99.90
17587;DHT22;8912;52.336;17.172;2022-08-01T01:28:21;14.20;99.90
17587;DHT22;8912;52.336;17.172;2022-08-01T01:30:57;14.20;99.90
17587;DHT22;8912;52.336;17.172;2022-08-01T01:33:28;14.20;99.90
17587;DHT22;8912;52.336;17.172;2022-08-01T01:36:01;14.20;99.90
17587;DHT22;8912;52.336;17.172;2022-08-01T01:38:40;14.30;99.90
17587;DHT22;8912;52.336;17.172;2022-08-01T01:41:11;14.30;99.90
17587;DHT22;8912;52.336;17.172;2022-08-01T01:43:41;14.40;99.90
17587;DHT22;8912;52.336;17.172;2022-08-01T01:46:16;14.50;99.90
17587;DHT22;8912;52.336;17.172;2022-08-01T01:48:46;14.50;99.90
17587;DHT22;8912;52.336;17.172;2022-08-01T01:51:16;14.40;99.90
17587;DHT22;8912;52.336;17.172;2022-08-01T01:53:47;14.40;99.90
17587;DHT22;8912;52.336;17.172;2022-08-01T01:56:17;14.30;99.90
17587;DHT22;8912;52.336;17.172;2022-08-01T01:58:50;14.30;99.90
17587;DHT22;8912;52.336;17.172;2022-08-01T02:01:22;14.30;99.90
17587;DHT22;8912;52.336;17.172;2022-08-01T02:04:12;14.30;99.90
17587;DHT22;8912;52.336;17.172;2022-08-01T02:06:42;14.30;99.90
17587;DHT22;8912;52.336;17.172;2022-08-01T02:09:14;14.40;99.90
17587;DHT22;8912;52.336;17.172;2022-08-01T02:11:46;14.50;99.90
17587;DHT22;8912;52.336;17.172;2022-08-01T02:14:35;14.60;99.90
17587;DHT22;8912;52.336;17.172;2022-08-01T02:17:10;14.80;99.90
17587;DHT22;8912;52.336;17.172;2022-08-01T02:19:39;14.80;99.90
17587;DHT22;8912;52.336;17.172;2022-08-01T02:22:11;14.80;99.90
17587;DHT22;8912;52.336;17.172;2022-08-01T02:24:45;14.70;99.90
17587;DHT22;8912;52.336;17.172;2022-08-01T02:27:19;14.70;99.90
17587;DHT22;8912;52.336;17.172;2022-08-01T02:29:54;14.70;99.90
17587;DHT22;8912;52.336;17.172;2022-08-01T02:32:31;14.80;99.90
17587;DHT22;8912;52.336;17.172;2022-08-01T02:35:01;14.80;99.90
17587;DHT22;8912;52.336;17.172;2022-08-01T02:37:33;14.80;99.90
17587;DHT22;8912;52.336;17.172;2022-08-01T02:40:10;14.80;99.90
17587;DHT22;8912;52.336;17.172;2022-08-01T02:42:45;14.80;99.90
17587;DHT22;8912;52.336;17.172;2022-08-01T02:45:18;14.80;99.90
17587;DHT22;8912;52.336;17.172;2022-08-01T02:47:50;14.80;99.90
17587;DHT22;8912;52.336;17.172;2022-08-01T02:50:21;14.80;99.90
17587;DHT22;8912;52.336;17.172;2022-08-01T02:52:52;14.90;99.90
17587;DHT22;8912;52.336;17.172;2022-08-01T02:55:23;15.00;99.90
17587;DHT22;8912;52.336;17.172;2022-08-01T02:57:53;15.00;99.90
17587;DHT22;8912;52.336;17.172;2022-08-01T03:00:28;15.00;99.90
17587;DHT22;8912;52.336;17.172;2022-08-01T03:03:00;15.20;99.90
17587;DHT22;8912;52.336;17.172;2022-08-01T03:05:30;15.20;99.90
17587;DHT22;8912;52.336;17.172;2022-08-01T03:08:01;15.10;99.90
17587;DHT22;8912;52.336;17.172;2022-08-01T03:10:39;15.20;99.90
17587;DHT22;8912;52.336;17.172;2022-08-01T03:13:10;15.20;99.90
17587;DHT22;8912;52.336;17.172;2022-08-01T03:15:42;15.20;99.90
17587;DHT22;8912;52.336;17.172;2022-08-01T03:18:14;15.30;99.90
17587;DHT22;8912;52.336;17.172;2022-08-01T03:20:45;15.30;99.90
17587;DHT22;8912;52.336;17.172;2022-08-01T03:23:15;15.40;99.90
17587;DHT22;8912;52.336;17.172;2022-08-01T03:25:45;15.50;99.90
17587;DHT22;8912;52.336;17.172;2022-08-01T03:28:16;15.50;99.90
17587;DHT22;8912;52.336;17.172;2022-08-01T03:30:46;15.60;99.90
17587;DHT22;8912;52.336;17.172;2022-08-01T03:33:18;15.50;99.90
17587;DHT22;8912;52.336;17.172;2022-08-01T03:35:51;15.70;99.90
17587;DHT22;8912;52.336;17.172;2022-08-01T03:38:23;15.70;99.90
17587;DHT22;8912;52.336;17.172;2022-08-01T03:40:57;15.80;99.90
17587;DHT22;8912;52.336;17.172;2022-08-01T03:43:32;15.90;99.90
17587;DHT22;8912;52.336;17.172;2022-08-01T03:46:06;15.90;99.90
17587;DHT22;8912;52.336;17.172;2022-08-01T03:48:39;16.00;99.90
17587;DHT22;8912;52.336;17.172;2022-08-01T03:51:10;16.10;99.90
17587;DHT22;8912;52.336;17.172;2022-08-01T03:53:41;16.10;99.90
17587;DHT22;8912;52.336;17.172;2022-08-01T03:56:13;16.20;99.90
17587;DHT22;8912;52.336;17.172;2022-08-01T03:58:44;16.10;99.90
17587;DHT22;8912;52.336;17.172;2022-08-01T04:01:17;16.10;99.90
17587;DHT22;8912;52.336;17.172;2022-08-01T04:03:48;16.00;99.90
17587;DHT22;8912;52.336;17.172;2022-08-01T04:06:17;16.00;99.90
17587;DHT22;8912;52.336;17.172;2022-08-01T04:08:46;16.00;99.90
17587;DHT22;8912;52.336;17.172;2022-08-01T04:11:24;16.00;99.90
17587;DHT22;8912;52.336;17.172;2022-08-01T04:13:54;16.20;99.90
17587;DHT22;8912;52.336;17.172;2022-08-01T04:16:24;16.10;99.90
17587;DHT22;8912;52.336;17.172;2022-08-01T04:18:54;16.20;99.90
17587;DHT22;8912;52.336;17.172;2022-08-01T04:21:26;16.20;99.90
17587;DHT22;8912;52.336;17.172;2022-08-01T04:23:59;16.20;99.90
17587;DHT22;8912;52.336;17.172;2022-08-01T04:26:32;16.20;99.90
17587;DHT22;8912;52.336;17.172;2022-08-01T04:29:04;16.30;99.90
17587;DHT22;8912;52.336;17.172;2022-08-01T04:31:34;16.40;99.90
17587;DHT22;8912;52.336;17.172;2022-08-01T04:34:06;16.50;99.90
17587;DHT22;8912;52.336;17.172;2022-08-01T04:36:36;16.60;99.90
17587;DHT22;8912;52.336;17.172;2022-08-01T04:39:05;16.60;99.90
17587;DHT22;8912;52.336;17.172;2022-08-01T04:41:35;16.70;99.90
17587;DHT22;8912;52.336;17.172;2022-08-01T04:44:05;16.80;99.90
17587;DHT22;8912;52.336;17.172;2022-08-01T04:46:34;16.90;99.90
17587;DHT22;8912;52.336;17.172;2022-08-01T04:49:10;16.90;99.90
17587;DHT22;8912;52.336;17.172;2022-08-01T04:51:50;16.80;99.90
17587;DHT22;8912;52.336;17.172;2022-08-01T04:54:19;17.00;99.90
17587;DHT22;8912;52.336;17.172;2022-08-01T04:56:48;17.10;99.90
17587;DHT22;8912;52.336;17.172;2022-08-01T04:59:17;17.10;99.90
17587;DHT22;8912;52.336;17.172;2022-08-01T05:02:04;17.10;99.90
17587;DHT22;8912;52.336;17.172;2022-08-01T05:04:35;17.10;99.90
17587;DHT22;8912;52.336;17.172;2022-08-01T05:07:03;17.10;99.90
17587;DHT22;8912;52.336;17.172;2022-08-01T05:09:32;17.30;99.90
17587;DHT22;8912;52.336;17.172;2022-08-01T05:12:02;17.30;99.90
17587;DHT22;8912;52.336;17.172;2022-08-01T05:14:32;17.40;99.90
17587;DHT22;8912;52.336;17.172;2022-08-01T05:17:02;17.40;99.90
17587;DHT22;8912;52.336;17.172;2022-08-01T05:19:33;17.50;99.90
17587;DHT22;8912;52.336;17.172;2022-08-01T05:22:04;17.60;99.90
17587;DHT22;8912;52.336;17.172;2022-08-01T05:24:34;17.60;99.90
17587;DHT22;8912;52.336;17.172;2022-08-01T05:27:06;17.60;99.90
17587;DHT22;8912;52.336;17.172;2022-08-01T05:29:37;17.60;99.90
17587;DHT22;8912;52.336;17.172;2022-08-01T05:32:11;17.50;99.90
17587;DHT22;8912;52.336;17.172;2022-08-01T05:34:41;17.50;99.90
17587;DHT22;8912;52.336;17.172;2022-08-01T05:37:10;17.40;99.90
17587;DHT22;8912;52.336;17.172;2022-08-01T05:39:38;17.40;99.90
17587;DHT22;8912;52.336;17.172;2022-08-01T05:42:07;17.40;99.90
17587;DHT22;8912;52.336;17.172;2022-08-01T05:44:36;17.40;99.90
17587;DHT22;8912;52.336;17.172;2022-08-01T05:47:04;17.50;99.90
17587;DHT22;8912;52.336;17.172;2022-08-01T05:49:33;17.60;99.90
17587;DHT22;8912;52.336;17.172;2022-08-01T05:52:03;17.60;99.90
17587;DHT22;8912;52.336;17.172;2022-08-01T05:54:32;17.50;99.90
17587;DHT22;8912;52.336;17.172;2022-08-01T05:57:01;17.40;99.90
17587;DHT22;8912;52.336;17.172;2022-08-01T05:59:30;17.50;99.90
17587;DHT22;8912;52.336;17.172;2022-08-01T06:01:59;17.60;99.90
17587;DHT22;8912;52.336;17.172;2022-08-01T06:04:27;17.60;99.90
17587;DHT22;8912;52.336;17.172;2022-08-01T06:06:56;17.60;99.90
17587;DHT22;8912;52.336;17.172;2022-08-01T06:09:26;17.60;99.90
17587;DHT22;8912;52.336;17.172;2022-08-01T06:11:54;17.70;99.90
17587;DHT22;8912;52.336;17.172;2022-08-01T06:14:23;17.70;99.90
17587;DHT22;8912;52.336;17.172;2022-08-01T06:16:51;17.70;99.90
17587;DHT22;8912;52.336;17.172;2022-08-01T06:19:20;17.70;99.90
17587;DHT22;8912;52.336;17.172;2022-08-01T06:21:49;17.70;99.90
17587;DHT22;8912;52.336;17.172;2022-08-01T06:24:17;17.70;99.90
17587;DHT22;8912;52.336;17.172;2022-08-01T06:26:47;17.70;99.90
17587;DHT22;8912;52.336;17.172;2022-08-01T06:29:16;17.80;99.90
17587;DHT22;8912;52.336;17.172;2022-08-01T06:31:45;17.70;99.90
17587;DHT22;8912;52.336;17.172;2022-08-01T06:34:14;17.70;99.90
17587;DHT22;8912;52.336;17.172;2022-08-01T06:36:42;17.80;99.90
17587;DHT22;8912;52.336;17.172;2022-08-01T06:39:11;17.80;99.90
17587;DHT22;8912;52.336;17.172;2022-08-01T06:41:40;17.80;99.90
17587;DHT22;8912;52.336;17.172;2022-08-01T06:44:11;17.90;99.90
17587;DHT22;8912;52.336;17.172;2022-08-01T06:46:40;18.00;99.90
17587;DHT22;8912;52.336;17.172;2022-08-01T06:49:09;17.90;99.90
17587;DHT22;8912;52.336;17.172;2022-08-01T06:51:38;17.90;99.90
17587;DHT22;8912;52.336;17.172;2022-08-01T06:54:07;18.00;99.90
17587;DHT22;8912;52.336;17.172;2022-08-01T06:56:35;17.90;99.90
17587;DHT22;8912;52.336;17.172;2022-08-01T06:59:04;18.00;99.90
17587;DHT22;8912;52.336;17.172;2022-08-01T07:01:35;18.00;99.90
17587;DHT22;8912;52.336;17.172;2022-08-01T07:04:05;18.10;99.90
17587;DHT22;8912;52.336;17.172;2022-08-01T07:06:34;18.40;99.90
17587;DHT22;8912;52.336;17.172;2022-08-01T07:09:03;18.40;99.90
17587;DHT22;8912;52.336;17.172;2022-08-01T07:11:38;18.40;99.90
17587;DHT22;8912;52.336;17.172;2022-08-01T07:14:07;18.50;99.90
17587;DHT22;8912;52.336;17.172;2022-08-01T07:16:37;18.60;99.90
17587;DHT22;8912;52.336;17.172;2022-08-01T07:19:06;18.60;99.90
17587;DHT22;8912;52.336;17.172;2022-08-01T07:21:35;18.70;99.90
17587;DHT22;8912;52.336;17.172;2022-08-01T07:24:09;18.80;99.90
17587;DHT22;8912;52.336;17.172;2022-08-01T07:26:41;18.80;99.90
17587;DHT22;8912;52.336;17.172;2022-08-01T07:29:21;18.90;99.90
17587;DHT22;8912;52.336;17.172;2022-08-01T07:31:53;19.00;99.90
17587;DHT22;8912;52.336;17.172;2022-08-01T07:34:23;19.00;99.90
17587;DHT22;8912;52.336;17.172;2022-08-01T07:36:52;19.00;99.90
17587;DHT22;8912;52.336;17.172;2022-08-01T07:39:21;19.00;99.90
17587;DHT22;8912;52.336;17.172;2022-08-01T07:41:50;19.00;99.90
17587;DHT22;8912;52.336;17.172;2022-08-01T07:44:34;19.10;99.90
17587;DHT22;8912;52.336;17.172;2022-08-01T07:47:05;19.00;99.90
17587;DHT22;8912;52.336;17.172;2022-08-01T07:49:35;19.00;99.90
17587;DHT22;8912;52.336;17.172;2022-08-01T07:52:07;19.00;99.90
17587;DHT22;8912;52.336;17.172;2022-08-01T07:54:36;19.20;99.90
17587;DHT22;8912;52.336;17.172;2022-08-01T07:57:05;19.20;99.90
17587;DHT22;8912;52.336;17.172;2022-08-01T07:59:34;19.20;99.90
17587;DHT22;8912;52.336;17.172;2022-08-01T08:02:04;19.30;99.90
17587;DHT22;8912;52.336;17.172;2022-08-01T08:04:34;19.30;99.90
17587;DHT22;8912;52.336;17.172;2022-08-01T08:07:03;19.30;99.90
17587;DHT22;8912;52.336;17.172;2022-08-01T08:09:32;19.30;99.90
17587;DHT22;8912;52.336;17.172;2022-08-01T08:12:05;19.40;99.90
17587;DHT22;8912;52.336;17.172;2022-08-01T08:14:35;19.40;99.90
17587;DHT22;8912;52.336;17.172;2022-08-01T08:17:06;19.40;99.90
17587;DHT22;8912;52.336;17.172;2022-08-01T08:19:35;19.40;99.90
17587;DHT22;8912;52.336;17.172;2022-08-01T08:22:06;19.40;99.90
17587;DHT22;8912;52.336;17.172;2022-08-01T08:24:37;19.40;99.90
17587;DHT22;8912;52.336;17.172;2022-08-01T08:27:13;19.40;99.90
17587;DHT22;8912;52.336;17.172;2022-08-01T08:29:43;19.60;99.90
17587;DHT22;8912;52.336;17.172;2022-08-01T08:32:13;19.70;99.90
17587;DHT22;8912;52.336;17.172;2022-08-01T08:34:42;19.80;99.90
17587;DHT22;8912;52.336;17.172;2022-08-01T08:37:11;19.90;99.90
17587;DHT22;8912;52.336;17.172;2022-08-01T08:39:40;20.00;99.90
17587;DHT22;8912;52.336;17.172;2022-08-01T08:42:10;20.00;99.90
17587;DHT22;8912;52.336;17.172;2022-08-01T08:44:41;19.90;99.90
17587;DHT22;8912;52.336;17.172;2022-08-01T08:47:13;19.90;99.90
17587;DHT22;8912;52.336;17.172;2022-08-01T08:49:47;20.10;99.90
17587;DHT22;8912;52.336;17.172;2022-08-01T08:52:19;20.10;99.90
17587;DHT22;8912;52.336;17.172;2022-08-01T08:54:49;20.40;99.90
17587;DHT22;8912;52.336;17.172;2022-08-01T08:57:20;20.60;99.90
17587;DHT22;8912;52.336;17.172;2022-08-01T08:59:49;20.80;99.90
17587;DHT22;8912;52.336;17.172;2022-08-01T09:02:23;21.00;99.90
17587;DHT22;8912;52.336;17.172;2022-08-01T09:04:52;21.20;99.90
17587;DHT22;8912;52.336;17.172;2022-08-01T09:07:21;21.60;99.90
17587;DHT22;8912;52.336;17.172;2022-08-01T09:09:50;21.80;99.90
17587;DHT22;8912;52.336;17.172;2022-08-01T09:12:19;21.90;99.90
17587;DHT22;8912;52.336;17.172;2022-08-01T09:14:48;22.20;99.90
17587;DHT22;8912;52.336;17.172;2022-08-01T09:17:20;22.30;99.90
17587;DHT22;8912;52.336;17.172;2022-08-01T09:19:53;22.30;99.90
17587;DHT22;8912;52.336;17.172;2022-08-01T09:22:25;22.30;99.90
17587;DHT22;8912;52.336;17.172;2022-08-01T09:24:59;22.60;99.90
17587;DHT22;8912;52.336;17.172;2022-08-01T09:27:28;22.60;99.90
17587;DHT22;8912;52.336;17.172;2022-08-01T09:30:08;22.70;99.90
17587;DHT22;8912;52.336;17.172;2022-08-01T09:32:53;22.70;99.90
17587;DHT22;8912;52.336;17.172;2022-08-01T09:35:27;22.80;99.90
17587;DHT22;8912;52.336;17.172;2022-08-01T09:38:14;23.10;99.90
17587;DHT22;8912;52.336;17.172;2022-08-01T09:40:45;23.30;99.90
17587;DHT22;8912;52.336;17.172;2022-08-01T09:43:15;23.60;99.90
17587;DHT22;8912;52.336;17.172;2022-08-01T09:45:45;23.70;99.90
17587;DHT22;8912;52.336;17.172;2022-08-01T09:48:17;23.70;99.90
17587;DHT22;8912;52.336;17.172;2022-08-01T09:50:51;23.70;99.90
17587;DHT22;8912;52.336;17.172;2022-08-01T09:53:21;23.60;99.90
17587;DHT22;8912;52.336;17.172;2022-08-01T09:56:09;23.80;99.90
17587;DHT22;8912;52.336;17.172;2022-08-01T09:58:51;24.20;99.90
17587;DHT22;8912;52.336;17.172;2022-08-01T10:01:26;24.50;99.90
17587;DHT22;8912;52.336;17.172;2022-08-01T10:04:07;24.70;99.90
17587;DHT22;8912;52.336;17.172;2022-08-01T10:06:39;24.80;99.90
17587;DHT22;8912;52.336;17.172;2022-08-01T10:09:11;24.90;99.90
17587;DHT22;8912;52.336;17.172;2022-08-01T10:11:41;24.50;99.90
17587;DHT22;8912;52.336;17.172;2022-08-01T10:14:12;24.60;99.90
17587;DHT22;8912;52.336;17.172;2022-08-01T10:16:45;24.70;99.90
17587;DHT22;8912;52.336;17.172;2022-08-01T10:19:24;25.00;99.90
17587;DHT22;8912;52.336;17.172;2022-08-01T10:21:57;25.10;99.90
17587;DHT22;8912;52.336;17.172;2022-08-01T10:24:28;25.10;99.90
17587;DHT22;8912;52.336;17.172;2022-08-01T10:27:02;25.30;99.90
17587;DHT22;8912;52.336;17.172;2022-08-01T10:29:41;25.40;99.90
17587;DHT22;8912;52.336;17.172;2022-08-01T10:32:30;25.70;99.90
17587;DHT22;8912;52.336;17.172;2022-08-01T10:34:59;25.50;99.90
17587;DHT22;8912;52.336;17.172;2022-08-01T10:37:35;25.40;99.90
17587;DHT22;8912;52.336;17.172;2022-08-01T10:40:19;25.50;99.90
17587;DHT22;8912;52.336;17.172;2022-08-01T10:42:58;25.70;99.90
17587;DHT22;8912;52.336;17.172;2022-08-01T10:45:27;26.10;99.10
17587;DHT22;8912;52.336;17.172;2022-08-01T10:48:02;26.30;99.90
17587;DHT22;8912;52.336;17.172;2022-08-01T10:50:37;26.30;99.20
17587;DHT22;8912;52.336;17.172;2022-08-01T10:53:13;26.60;98.80
17587;DHT22;8912;52.336;17.172;2022-08-01T10:55:57;26.90;97.90
17587;DHT22;8912;52.336;17.172;2022-08-01T10:58:32;27.20;97.30
17587;DHT22;8912;52.336;17.172;2022-08-01T11:01:23;27.10;95.80
17587;DHT22;8912;52.336;17.172;2022-08-01T11:04:04;26.90;95.10
17587;DHT22;8912;52.336;17.172;2022-08-01T11:06:43;26.80;98.60
17587;DHT22;8912;52.336;17.172;2022-08-01T11:09:28;26.80;96.40
17587;DHT22;8912;52.336;17.172;2022-08-01T11:12:07;26.70;95.60
17587;DHT22;8912;52.336;17.172;2022-08-01T11:15:18;26.50;95.90
17587;DHT22;8912;52.336;17.172;2022-08-01T11:17:59;26.40;97.70
17587;DHT22;8912;52.336;17.172;2022-08-01T11:20:29;26.20;99.40
17587;DHT22;8912;52.336;17.172;2022-08-01T11:23:27;25.90;99.90
17587;DHT22;8912;52.336;17.172;2022-08-01T11:26:11;25.70;99.90
17587;DHT22;8912;52.336;17.172;2022-08-01T11:28:44;25.20;99.90
17587;DHT22;8912;52.336;17.172;2022-08-01T11:31:33;24.40;99.90
17587;DHT22;8912;52.336;17.172;2022-08-01T11:34:04;23.90;99.90
17587;DHT22;8912;52.336;17.172;2022-08-01T11:36:33;23.90;99.90
17587;DHT22;8912;52.336;17.172;2022-08-01T11:39:22;24.10;99.90
17587;DHT22;8912;52.336;17.172;2022-08-01T11:41:53;24.50;99.90
17587;DHT22;8912;52.336;17.172;2022-08-01T11:44:23;24.60;99.90
17587;DHT22;8912;52.336;17.172;2022-08-01T11:47:03;24.70;99.90
17587;DHT22;8912;52.336;17.172;2022-08-01T11:49:54;24.60;99.90
17587;DHT22;8912;52.336;17.172;2022-08-01T11:52:27;24.60;99.90
17587;DHT22;8912;52.336;17.172;2022-08-01T11:55:00;24.60;99.90
17587;DHT22;8912;52.336;17.172;2022-08-01T11:57:38;24.40;99.90
17587;DHT22;8912;52.336;17.172;2022-08-01T12:00:11;23.70;99.90
17587;DHT22;8912;52.336;17.172;2022-08-01T12:02:44;23.20;99.90
17587;DHT22;8912;52.336;17.172;2022-08-01T12:05:16;23.00;99.90
17587;DHT22;8912;52.336;17.172;2022-08-01T12:07:51;23.00;99.90
17587;DHT22;8912;52.336;17.172;2022-08-01T12:10:22;22.90;99.90
17587;DHT22;8912;52.336;17.172;2022-08-01T12:12:55;23.10;99.90
17587;DHT22;8912;52.336;17.172;2022-08-01T12:15:27;23.60;99.90
17587;DHT22;8912;52.336;17.172;2022-08-01T12:17:58;23.80;99.90
17587;DHT22;8912;52.336;17.172;2022-08-01T12:20:29;24.20;99.90
17587;DHT22;8912;52.336;17.172;2022-08-01T12:23:01;25.00;99.90
17587;DHT22;8912;52.336;17.172;2022-08-01T12:25:30;25.70;99.90
17587;DHT22;8912;52.336;17.172;2022-08-01T12:28:02;25.80;99.90
17587;DHT22;8912;52.336;17.172;2022-08-01T12:30:33;25.90;99.90
17587;DHT22;8912;52.336;17.172;2022-08-01T12:33:04;25.90;99.90
17587;DHT22;8912;52.336;17.172;2022-08-01T12:35:34;25.90;99.90
17587;DHT22;8912;52.336;17.172;2022-08-01T12:38:06;25.70;99.90
17587;DHT22;8912;52.336;17.172;2022-08-01T12:40:41;25.30;99.90
17587;DHT22;8912;52.336;17.172;2022-08-01T12:43:18;25.10;99.90
17587;DHT22;8912;52.336;17.172;2022-08-01T12:45:56;25.00;99.90
17587;DHT22;8912;52.336;17.172;2022-08-01T12:48:27;24.90;99.90
17587;DHT22;8912;52.336;17.172;2022-08-01T12:50:59;25.00;99.90
17587;DHT22;8912;52.336;17.172;2022-08-01T12:53:33;25.00;99.90
17587;DHT22;8912;52.336;17.172;2022-08-01T12:56:08;24.90;99.90
17587;DHT22;8912;52.336;17.172;2022-08-01T12:58:40;24.50;99.90
17587;DHT22;8912;52.336;17.172;2022-08-01T13:01:10;24.20;99.90
17587;DHT22;8912;52.336;17.172;2022-08-01T13:03:40;24.40;99.90
17587;DHT22;8912;52.336;17.172;2022-08-01T13:06:11;24.60;99.90
17587;DHT22;8912;52.336;17.172;2022-08-01T13:08:44;24.40;99.90
17587;DHT22;8912;52.336;17.172;2022-08-01T13:11:14;24.30;99.90
17587;DHT22;8912;52.336;17.172;2022-08-01T13:13:50;24.60;99.90
17587;DHT22;8912;52.336;17.172;2022-08-01T13:16:21;24.90;99.90
17587;DHT22;8912;52.336;17.172;2022-08-01T13:19:00;25.00;99.90
17587;DHT22;8912;52.336;17.172;2022-08-01T13:21:29;24.90;99.90
17587;DHT22;8912;52.336;17.172;2022-08-01T13:24:23;25.00;99.90
17587;DHT22;8912;52.336;17.172;2022-08-01T13:26:54;25.00;99.90
17587;DHT22;8912;52.336;17.172;2022-08-01T13:29:32;25.10;99.90
17587;DHT22;8912;52.336;17.172;2022-08-01T13:32:14;25.30;99.90
17587;DHT22;8912;52.336;17.172;2022-08-01T13:35:03;25.70;99.90
17587;DHT22;8912;52.336;17.172;2022-08-01T13:37:32;25.70;99.90
17587;DHT22;8912;52.336;17.172;2022-08-01T13:40:04;25.80;99.90
17587;DHT22;8912;52.336;17.172;2022-08-01T13:42:33;25.80;99.90
17587;DHT22;8912;52.336;17.172;2022-08-01T13:45:06;25.70;99.90
17587;DHT22;8912;52.336;17.172;2022-08-01T13:47:41;25.70;99.90
17587;DHT22;8912;52.336;17.172;2022-08-01T13:50:30;25.80;99.90
17587;DHT22;8912;52.336;17.172;2022-08-01T13:52:59;26.30;99.90
17587;DHT22;8912;52.336;17.172;2022-08-01T13:55:28;26.60;99.90
17587;DHT22;8912;52.336;17.172;2022-08-01T13:58:02;26.40;99.90
17587;DHT22;8912;52.336;17.172;2022-08-01T14:00:32;26.40;99.90
17587;DHT22;8912;52.336;17.172;2022-08-01T14:03:01;26.20;99.90
17587;DHT22;8912;52.336;17.172;2022-08-01T14:05:30;26.40;99.90
17587;DHT22;8912;52.336;17.172;2022-08-01T14:07:58;26.40;99.90
17587;DHT22;8912;52.336;17.172;2022-08-01T14:10:27;26.40;99.90
17587;DHT22;8912;52.336;17.172;2022-08-01T14:12:56;26.40;99.90
17587;DHT22;8912;52.336;17.172;2022-08-01T14:15:28;26.10;99.90
17587;DHT22;8912;52.336;17.172;2022-08-01T14:18:08;25.40;99.90
17587;DHT22;8912;52.336;17.172;2022-08-01T14:20:38;22.80;99.90
17587;DHT22;8912;52.336;17.172;2022-08-01T14:23:07;22.00;99.90
17587;DHT22;8912;52.336;17.172;2022-08-01T14:25:36;21.80;99.90
17587;DHT22;8912;52.336;17.172;2022-08-01T14:28:25;21.60;99.90
17587;DHT22;8912;52.336;17.172;2022-08-01T14:30:56;21.70;99.90
17587;DHT22;8912;52.336;17.172;2022-08-01T14:33:26;21.80;99.90
17587;DHT22;8912;52.336;17.172;2022-08-01T14:35:56;22.00;99.90
17587;DHT22;8912;52.336;17.172;2022-08-01T14:38:44;22.10;99.90
17587;DHT22;8912;52.336;17.172;2022-08-01T14:41:13;22.30;99.90
17587;DHT22;8912;52.336;17.172;2022-08-01T14:43:42;22.40;99.90
17587;DHT22;8912;52.336;17.172;2022-08-01T14:46:11;22.60;99.90
17587;DHT22;8912;52.336;17.172;2022-08-01T14:48:41;22.60;99.90
17587;DHT22;8912;52.336;17.172;2022-08-01T14:51:10;22.60;99.90
17587;DHT22;8912;52.336;17.172;2022-08-01T14:53:38;22.70;99.90
17587;DHT22;8912;52.336;17.172;2022-08-01T14:56:13;22.70;99.90
17587;DHT22;8912;52.336;17.172;2022-08-01T14:58:42;22.60;99.90
17587;DHT22;8912;52.336;17.172;2022-08-01T15:01:10;22.50;99.90
17587;DHT22;8912;52.336;17.172;2022-08-01T15:03:40;22.40;99.90
17587;DHT22;8912;52.336;17.172;2022-08-01T15:06:09;22.30;99.90
17587;DHT22;8912;52.336;17.172;2022-08-01T15:08:38;22.10;99.90
17587;DHT22;8912;52.336;17.172;2022-08-01T15:11:07;21.90;99.90
17587;DHT22;8912;52.336;17.172;2022-08-01T15:13:36;21.90;99.90
17587;DHT22;8912;52.336;17.172;2022-08-01T15:16:09;21.80;99.90
17587;DHT22;8912;52.336;17.172;2022-08-01T15:18:38;21.90;99.90
17587;DHT22;8912;52.336;17.172;2022-08-01T15:21:10;22.00;99.90
17587;DHT22;8912;52.336;17.172;2022-08-01T15:23:59;22.30;99.90
17587;DHT22;8912;52.336;17.172;2022-08-01T15:26:28;22.80;99.90
17587;DHT22;8912;52.336;17.172;2022-08-01T15:28:57;23.30;99.90
17587;DHT22;8912;52.336;17.172;2022-08-01T15:31:25;23.60;99.90
17587;DHT22;8912;52.336;17.172;2022-08-01T15:33:54;23.80;99.90
17587;DHT22;8912;52.336;17.172;2022-08-01T15:36:24;24.00;99.90
17587;DHT22;8912;52.336;17.172;2022-08-01T15:38:52;24.00;99.90
17587;DHT22;8912;52.336;17.172;2022-08-01T15:41:22;24.00;99.90
17587;DHT22;8912;52.336;17.172;2022-08-01T15:43:51;24.00;99.90
17587;DHT22;8912;52.336;17.172;2022-08-01T15:46:22;24.10;99.90
17587;DHT22;8912;52.336;17.172;2022-08-01T15:48:51;24.00;99.90
17587;DHT22;8912;52.336;17.172;2022-08-01T15:51:20;24.00;99.90
17587;DHT22;8912;52.336;17.172;2022-08-01T15:53:50;24.00;99.90
17587;DHT22;8912;52.336;17.172;2022-08-01T15:56:19;24.00;99.90
17587;DHT22;8912;52.336;17.172;2022-08-01T15:58:48;24.00;99.90
17587;DHT22;8912;52.336;17.172;2022-08-01T16:01:16;24.10;99.90
17587;DHT22;8912;52.336;17.172;2022-08-01T16:03:45;24.20;99.90